« Back
NWS Peachtree City, Ga » Text Product » CSG Terminal Aerodrome Forecast


Printer-friendly Version
Current Version              Previous Versions:   1  2  3  4  5  6  7  8  9  

Terminal Aerodrome Forecast

791
FTUS42 KFFC 301100 RRA
TAFCSG
TAF
KCSG 301143Z 3012/3112 00000KT P6SM BKN012
     FM301500 19006KT P6SM VCSH SCT025 BKN050 PROB30 3021/3101 6SM
      TSRA BKN045CB
     FM310200 00000KT P6SM BKN045=



USA.gov is the U.S. government's official web portal to all federal, state and local government web resources and services.